sensor_id;sensor_type;location;lat;lon;timestamp;pressure;altitude;pressure_sealevel;temperature;humidity
78741;BME280;68062;48.726;9.370;2023-05-07T00:00:19;98579.19;;;11.77;100.00
78741;BME280;68062;48.726;9.370;2023-05-07T00:02:46;98626.31;;;11.88;100.00
78741;BME280;68062;48.726;9.370;2023-05-07T00:05:14;98616.09;;;11.81;100.00
78741;BME280;68062;48.726;9.370;2023-05-07T00:07:41;98618.75;;;11.70;100.00
78741;BME280;68062;48.726;9.370;2023-05-07T00:10:09;98574.44;;;11.30;100.00
78741;BME280;68062;48.726;9.370;2023-05-07T00:12:37;98623.81;;;11.82;100.00
78741;BME280;68062;48.726;9.370;2023-05-07T00:15:06;98623.66;;;12.01;100.00
78741;BME280;68062;48.726;9.370;2023-05-07T00:17:33;98615.91;;;12.04;100.00
78741;BME280;68062;48.726;9.370;2023-05-07T00:20:00;98615.88;;;12.07;100.00
78741;BME280;68062;48.726;9.370;2023-05-07T00:22:27;98621.19;;;11.87;100.00
78741;BME280;68062;48.726;9.370;2023-05-07T00:24:55;98597.16;;;11.88;100.00
78741;BME280;68062;48.726;9.370;2023-05-07T00:27:22;98603.00;;;11.99;100.00
78741;BME280;68062;48.726;9.370;2023-05-07T00:29:49;98611.72;;;11.87;100.00
78741;BME280;68062;48.726;9.370;2023-05-07T00:32:16;98604.28;;;11.58;100.00
78741;BME280;68062;48.726;9.370;2023-05-07T00:34:43;98605.94;;;11.63;100.00
78741;BME280;68062;48.726;9.370;2023-05-07T00:37:10;98600.13;;;11.40;100.00
78741;BME280;68062;48.726;9.370;2023-05-07T00:39:38;98600.78;;;11.65;100.00
78741;BME280;68062;48.726;9.370;2023-05-07T00:42:05;98601.50;;;11.81;100.00
78741;BME280;68062;48.726;9.370;2023-05-07T00:44:31;98608.41;;;11.77;100.00
78741;BME280;68062;48.726;9.370;2023-05-07T00:46:58;98601.59;;;11.70;100.00
78741;BME280;68062;48.726;9.370;2023-05-07T00:49:37;98611.97;;;11.64;100.00
78741;BME280;68062;48.726;9.370;2023-05-07T00:52:06;98605.91;;;11.67;100.00
78741;BME280;68062;48.726;9.370;2023-05-07T00:54:34;98600.91;;;11.50;100.00
78741;BME280;68062;48.726;9.370;2023-05-07T00:57:03;98574.53;;;11.18;100.00
78741;BME280;68062;48.726;9.370;2023-05-07T00:59:30;98597.69;;;11.21;100.00
78741;BME280;68062;48.726;9.370;2023-05-07T01:01:58;98601.84;;;11.42;100.00
78741;BME280;68062;48.726;9.370;2023-05-07T01:04:25;98599.19;;;11.50;100.00
78741;BME280;68062;48.726;9.370;2023-05-07T01:06:52;98593.38;;;11.25;100.00
78741;BME280;68062;48.726;9.370;2023-05-07T01:09:22;98591.69;;;11.19;100.00
78741;BME280;68062;48.726;9.370;2023-05-07T01:11:50;98600.06;;;11.46;100.00
78741;BME280;68062;48.726;9.370;2023-05-07T01:14:20;98593.94;;;11.59;100.00
78741;BME280;68062;48.726;9.370;2023-05-07T01:16:46;98592.44;;;11.35;100.00
78741;BME280;68062;48.726;9.370;2023-05-07T01:19:17;98600.13;;;11.41;100.00
78741;BME280;68062;48.726;9.370;2023-05-07T01:21:46;98599.47;;;11.14;100.00
78741;BME280;68062;48.726;9.370;2023-05-07T01:24:16;98603.78;;;11.08;100.00
78741;BME280;68062;48.726;9.370;2023-05-07T01:26:44;98605.56;;;10.98;100.00
78741;BME280;68062;48.726;9.370;2023-05-07T01:29:14;98596.13;;;10.95;100.00
78741;BME280;68062;48.726;9.370;2023-05-07T01:31:41;98601.25;;;10.98;100.00
78741;BME280;68062;48.726;9.370;2023-05-07T01:34:09;98597.06;;;10.83;100.00
78741;BME280;68062;48.726;9.370;2023-05-07T01:36:38;98584.28;;;10.71;100.00
78741;BME280;68062;48.726;9.370;2023-05-07T01:39:06;98591.91;;;10.85;100.00
78741;BME280;68062;48.726;9.370;2023-05-07T01:41:35;98596.25;;;10.78;100.00
78741;BME280;68062;48.726;9.370;2023-05-07T01:44:03;98590.00;;;11.16;100.00
78741;BME280;68062;48.726;9.370;2023-05-07T01:46:31;98588.09;;;11.42;100.00
78741;BME280;68062;48.726;9.370;2023-05-07T01:48:58;98582.88;;;11.48;100.00
78741;BME280;68062;48.726;9.370;2023-05-07T01:51:25;98583.13;;;11.18;100.00
78741;BME280;68062;48.726;9.370;2023-05-07T01:53:52;98573.81;;;10.97;100.00
78741;BME280;68062;48.726;9.370;2023-05-07T01:56:20;98562.88;;;10.61;100.00
78741;BME280;68062;48.726;9.370;2023-05-07T01:58:48;98580.72;;;10.89;100.00
78741;BME280;68062;48.726;9.370;2023-05-07T02:01:16;98585.03;;;10.92;100.00
78741;BME280;68062;48.726;9.370;2023-05-07T02:03:43;98578.28;;;10.72;100.00
78741;BME280;68062;48.726;9.370;2023-05-07T02:06:17;98587.72;;;10.65;100.00
78741;BME280;68062;48.726;9.370;2023-05-07T02:08:45;98588.66;;;10.53;100.00
78741;BME280;68062;48.726;9.370;2023-05-07T02:11:13;98592.06;;;10.57;100.00
78741;BME280;68062;48.726;9.370;2023-05-07T02:13:41;98590.34;;;10.54;100.00
78741;BME280;68062;48.726;9.370;2023-05-07T02:16:09;98598.06;;;10.57;100.00
78741;BME280;68062;48.726;9.370;2023-05-07T02:18:37;98597.16;;;10.66;100.00
78741;BME280;68062;48.726;9.370;2023-05-07T02:21:04;98595.41;;;10.68;100.00
78741;BME280;68062;48.726;9.370;2023-05-07T02:23:31;98598.00;;;10.68;100.00
78741;BME280;68062;48.726;9.370;2023-05-07T02:25:57;98598.91;;;10.56;100.00
78741;BME280;68062;48.726;9.370;2023-05-07T02:28:24;98596.38;;;10.52;100.00
78741;BME280;68062;48.726;9.370;2023-05-07T02:30:56;98592.09;;;10.46;100.00
78741;BME280;68062;48.726;9.370;2023-05-07T02:33:25;98603.94;;;10.81;100.00
78741;BME280;68062;48.726;9.370;2023-05-07T02:35:52;98583.34;;;10.83;100.00
78741;BME280;68062;48.726;9.370;2023-05-07T02:38:19;98601.25;;;11.00;100.00
78741;BME280;68062;48.726;9.370;2023-05-07T02:40:45;98592.69;;;10.96;100.00
78741;BME280;68062;48.726;9.370;2023-05-07T02:43:12;98593.59;;;10.94;100.00
78741;BME280;68062;48.726;9.370;2023-05-07T02:45:43;98588.47;;;10.87;100.00
78741;BME280;68062;48.726;9.370;2023-05-07T02:48:11;98596.16;;;10.94;100.00
78741;BME280;68062;48.726;9.370;2023-05-07T02:50:39;98594.47;;;10.86;100.00
78741;BME280;68062;48.726;9.370;2023-05-07T02:53:06;98596.31;;;10.66;100.00
78741;BME280;68062;48.726;9.370;2023-05-07T02:55:33;98590.41;;;10.43;100.00
78741;BME280;68062;48.726;9.370;2023-05-07T02:58:00;98588.78;;;10.14;100.00
78741;BME280;68062;48.726;9.370;2023-05-07T03:00:28;98599.91;;;9.99;100.00
78741;BME280;68062;48.726;9.370;2023-05-07T03:03:11;98569.19;;;9.61;100.00
78741;BME280;68062;48.726;9.370;2023-05-07T03:05:39;98588.84;;;9.63;100.00
78741;BME280;68062;48.726;9.370;2023-05-07T03:08:06;98601.66;;;9.99;100.00
78741;BME280;68062;48.726;9.370;2023-05-07T03:10:33;98602.47;;;10.15;100.00
78741;BME280;68062;48.726;9.370;2023-05-07T03:13:00;98564.81;;;10.09;100.00
78741;BME280;68062;48.726;9.370;2023-05-07T03:15:28;98590.41;;;10.42;100.00
78741;BME280;68062;48.726;9.370;2023-05-07T03:17:55;98586.97;;;10.38;100.00
78741;BME280;68062;48.726;9.370;2023-05-07T03:20:23;98575.84;;;10.41;100.00
78741;BME280;68062;48.726;9.370;2023-05-07T03:22:51;98562.16;;;10.29;100.00
78741;BME280;68062;48.726;9.370;2023-05-07T03:25:18;98570.75;;;10.21;100.00
78741;BME280;68062;48.726;9.370;2023-05-07T03:27:45;98573.34;;;10.18;100.00
78741;BME280;68062;48.726;9.370;2023-05-07T03:30:12;98566.50;;;10.10;100.00
78741;BME280;68062;48.726;9.370;2023-05-07T03:32:39;98569.13;;;9.84;100.00
78741;BME280;68062;48.726;9.370;2023-05-07T03:35:09;98575.13;;;9.70;100.00
78741;BME280;68062;48.726;9.370;2023-05-07T03:37:37;98575.16;;;9.64;100.00
78741;BME280;68062;48.726;9.370;2023-05-07T03:40:07;98575.13;;;9.74;100.00
78741;BME280;68062;48.726;9.370;2023-05-07T03:42:42;98582.00;;;9.64;100.00
78741;BME280;68062;48.726;9.370;2023-05-07T03:45:10;98587.97;;;9.70;100.00
78741;BME280;68062;48.726;9.370;2023-05-07T03:47:42;98589.72;;;9.47;100.00
78741;BME280;68062;48.726;9.370;2023-05-07T03:50:12;98597.41;;;9.39;100.00
78741;BME280;68062;48.726;9.370;2023-05-07T03:52:39;98591.44;;;9.62;100.00
78741;BME280;68062;48.726;9.370;2023-05-07T03:55:09;98593.97;;;9.80;100.00
78741;BME280;68062;48.726;9.370;2023-05-07T03:57:38;98599.97;;;9.89;100.00
78741;BME280;68062;48.726;9.370;2023-05-07T04:00:06;98589.69;;;9.92;100.00
78741;BME280;68062;48.726;9.370;2023-05-07T04:02:45;98593.09;;;10.00;100.00
78741;BME280;68062;48.726;9.370;2023-05-07T04:05:14;98581.97;;;9.89;100.00
78741;BME280;68062;48.726;9.370;2023-05-07T04:07:44;98602.53;;;9.79;100.00
78741;BME280;68062;48.726;9.370;2023-05-07T04:10:16;98600.00;;;9.54;100.00
78741;BME280;68062;48.726;9.370;2023-05-07T04:12:44;98598.28;;;9.63;100.00
78741;BME280;68062;48.726;9.370;2023-05-07T04:15:16;98602.56;;;9.54;100.00
78741;BME280;68062;48.726;9.370;2023-05-07T04:17:43;98590.56;;;9.41;100.00
78741;BME280;68062;48.726;9.370;2023-05-07T04:20:14;98600.00;;;9.57;100.00
78741;BME280;68062;48.726;9.370;2023-05-07T04:22:42;98603.41;;;9.58;100.00
78741;BME280;68062;48.726;9.370;2023-05-07T04:25:09;98600.84;;;9.63;100.00
78741;BME280;68062;48.726;9.370;2023-05-07T04:27:38;98605.09;;;9.53;100.00
78741;BME280;68062;48.726;9.370;2023-05-07T04:30:06;98606.84;;;9.65;100.00
78741;BME280;68062;48.726;9.370;2023-05-07T04:32:36;98600.81;;;9.52;100.00
78741;BME280;68062;48.726;9.370;2023-05-07T04:35:04;98616.22;;;9.64;100.00
78741;BME280;68062;48.726;9.370;2023-05-07T04:37:32;98618.78;;;9.70;100.00
78741;BME280;68062;48.726;9.370;2023-05-07T04:39:59;98624.78;;;9.76;100.00
78741;BME280;68062;48.726;9.370;2023-05-07T04:42:26;98627.34;;;9.96;100.00
78741;BME280;68062;48.726;9.370;2023-05-07T04:44:55;98623.94;;;9.84;100.00
78741;BME280;68062;48.726;9.370;2023-05-07T04:47:23;98619.66;;;9.77;100.00
78741;BME280;68062;48.726;9.370;2023-05-07T04:49:50;98618.81;;;9.72;100.00
78741;BME280;68062;48.726;9.370;2023-05-07T04:52:17;98622.22;;;9.69;100.00
78741;BME280;68062;48.726;9.370;2023-05-07T04:54:43;98623.09;;;9.76;100.00
78741;BME280;68062;48.726;9.370;2023-05-07T04:57:10;98624.78;;;9.80;100.00
78741;BME280;68062;48.726;9.370;2023-05-07T04:59:38;98629.91;;;9.85;100.00
78741;BME280;68062;48.726;9.370;2023-05-07T05:02:06;98633.34;;;9.87;100.00
78741;BME280;68062;48.726;9.370;2023-05-07T05:04:33;98633.34;;;9.89;100.00
78741;BME280;68062;48.726;9.370;2023-05-07T05:07:00;98636.75;;;9.95;100.00
78741;BME280;68062;48.726;9.370;2023-05-07T05:09:29;98629.00;;;10.17;100.00
78741;BME280;68062;48.726;9.370;2023-05-07T05:11:55;98625.59;;;10.20;100.00
78741;BME280;68062;48.726;9.370;2023-05-07T05:14:22;98633.25;;;10.44;100.00
78741;BME280;68062;48.726;9.370;2023-05-07T05:16:50;98640.88;;;10.63;100.00
78741;BME280;68062;48.726;9.370;2023-05-07T05:19:19;98655.44;;;10.64;100.00
78741;BME280;68062;48.726;9.370;2023-05-07T05:21:45;98657.16;;;10.62;100.00
78741;BME280;68062;48.726;9.370;2023-05-07T05:24:12;98652.06;;;10.51;100.00
78741;BME280;68062;48.726;9.370;2023-05-07T05:26:39;98651.25;;;10.32;100.00
78741;BME280;68062;48.726;9.370;2023-05-07T05:29:06;98652.09;;;10.37;100.00
78741;BME280;68062;48.726;9.370;2023-05-07T05:31:33;98655.47;;;10.61;100.00
78741;BME280;68062;48.726;9.370;2023-05-07T05:34:00;98648.50;;;10.89;100.00
78741;BME280;68062;48.726;9.370;2023-05-07T05:36:28;98648.38;;;11.07;100.00
78741;BME280;68062;48.726;9.370;2023-05-07T05:38:56;98643.84;;;11.51;100.00
78741;BME280;68062;48.726;9.370;2023-05-07T05:41:23;98646.25;;;11.69;100.00
78741;BME280;68062;48.726;9.370;2023-05-07T05:43:50;98650.47;;;11.80;100.00
78741;BME280;68062;48.726;9.370;2023-05-07T05:46:17;98655.59;;;11.81;100.00
78741;BME280;68062;48.726;9.370;2023-05-07T05:48:45;98651.09;;;12.06;100.00
78741;BME280;68062;48.726;9.370;2023-05-07T05:51:11;98653.47;;;12.25;100.00
78741;BME280;68062;48.726;9.370;2023-05-07T05:53:39;98648.16;;;12.42;100.00
78741;BME280;68062;48.726;9.370;2023-05-07T05:56:07;98654.16;;;12.43;100.00
78741;BME280;68062;48.726;9.370;2023-05-07T05:58:34;98639.44;;;12.53;100.00
78741;BME280;68062;48.726;9.370;2023-05-07T06:01:04;98646.69;;;12.91;100.00
78741;BME280;68062;48.726;9.370;2023-05-07T06:03:31;98646.53;;;13.04;100.00
78741;BME280;68062;48.726;9.370;2023-05-07T06:06:02;98658.22;;;13.30;98.87
78741;BME280;68062;48.726;9.370;2023-05-07T06:08:29;98649.16;;;13.60;95.63
78741;BME280;68062;48.726;9.370;2023-05-07T06:10:58;98654.06;;;13.77;94.24
78741;BME280;68062;48.726;9.370;2023-05-07T06:13:26;98663.47;;;14.32;91.06
78741;BME280;68062;48.726;9.370;2023-05-07T06:15:52;98656.09;;;14.55;90.13
78741;BME280;68062;48.726;9.370;2023-05-07T06:18:19;98655.47;;;14.44;90.08
78741;BME280;68062;48.726;9.370;2023-05-07T06:20:46;98650.47;;;14.79;87.98
78741;BME280;68062;48.726;9.370;2023-05-07T06:23:21;98658.03;;;14.90;88.39
78741;BME280;68062;48.726;9.370;2023-05-07T06:25:49;98653.84;;;15.23;87.51
78741;BME280;68062;48.726;9.370;2023-05-07T06:28:19;98644.59;;;15.51;85.63
78741;BME280;68062;48.726;9.370;2023-05-07T06:30:46;98656.91;;;15.41;85.14
78741;BME280;68062;48.726;9.370;2023-05-07T06:33:14;98654.78;;;15.95;82.11
78741;BME280;68062;48.726;9.370;2023-05-07T06:35:41;98647.59;;;16.38;78.71
78741;BME280;68062;48.726;9.370;2023-05-07T06:38:07;98653.59;;;16.71;78.76
78741;BME280;68062;48.726;9.370;2023-05-07T06:40:36;98652.44;;;17.12;76.75
78741;BME280;68062;48.726;9.370;2023-05-07T06:43:03;98660.41;;;17.34;73.47
78741;BME280;68062;48.726;9.370;2023-05-07T06:45:42;98657.75;;;17.09;75.51
78741;BME280;68062;48.726;9.370;2023-05-07T06:48:09;98660.34;;;17.91;71.00
78741;BME280;68062;48.726;9.370;2023-05-07T06:50:46;98655.28;;;17.86;71.38
78741;BME280;68062;48.726;9.370;2023-05-07T06:53:13;98616.84;;;17.94;68.86
78741;BME280;68062;48.726;9.370;2023-05-07T06:55:40;98638.66;;;17.90;69.85
78741;BME280;68062;48.726;9.370;2023-05-07T06:58:07;98639.53;;;18.65;68.92
78741;BME280;68062;48.726;9.370;2023-05-07T07:00:34;98650.84;;;18.88;67.53
78741;BME280;68062;48.726;9.370;2023-05-07T07:03:01;98642.09;;;18.43;69.15
78741;BME280;68062;48.726;9.370;2023-05-07T07:05:29;98638.50;;;18.70;67.79
78741;BME280;68062;48.726;9.370;2023-05-07T07:07:57;98641.19;;;19.81;64.45
78741;BME280;68062;48.726;9.370;2023-05-07T07:10:24;98627.41;;;21.53;60.10
78741;BME280;68062;48.726;9.370;2023-05-07T07:12:53;98633.00;;;22.67;56.29
78741;BME280;68062;48.726;9.370;2023-05-07T07:15:21;98585.94;;;22.81;54.46
78741;BME280;68062;48.726;9.370;2023-05-07T07:17:49;98613.84;;;22.98;52.99
78741;BME280;68062;48.726;9.370;2023-05-07T07:20:17;98618.16;;;23.31;52.24
78741;BME280;68062;48.726;9.370;2023-05-07T07:22:44;98610.19;;;23.94;50.71
78741;BME280;68062;48.726;9.370;2023-05-07T07:25:12;98601.41;;;24.53;49.48
78741;BME280;68062;48.726;9.370;2023-05-07T07:28:00;98612.06;;;25.21;47.39
78741;BME280;68062;48.726;9.370;2023-05-07T07:30:31;98614.78;;;25.87;46.21
78741;BME280;68062;48.726;9.370;2023-05-07T07:32:58;98612.25;;;25.05;48.48
78741;BME280;68062;48.726;9.370;2023-05-07T07:35:30;98605.25;;;26.38;45.74
78741;BME280;68062;48.726;9.370;2023-05-07T07:37:56;98606.72;;;26.42;46.00
78741;BME280;68062;48.726;9.370;2023-05-07T07:40:23;98603.91;;;27.31;42.71
78741;BME280;68062;48.726;9.370;2023-05-07T07:42:50;98611.28;;;26.64;43.88
78741;BME280;68062;48.726;9.370;2023-05-07T07:45:17;98612.00;;;25.50;47.62
78741;BME280;68062;48.726;9.370;2023-05-07T07:47:46;98603.88;;;26.19;45.20
78741;BME280;68062;48.726;9.370;2023-05-07T07:50:13;98601.53;;;28.33;42.33
78741;BME280;68062;48.726;9.370;2023-05-07T07:52:42;98606.09;;;28.20;42.36
78741;BME280;68062;48.726;9.370;2023-05-07T07:55:09;98604.16;;;29.23;40.31
78741;BME280;68062;48.726;9.370;2023-05-07T07:57:38;98572.75;;;27.95;41.27
78741;BME280;68062;48.726;9.370;2023-05-07T08:00:06;98603.84;;;26.45;44.46
78741;BME280;68062;48.726;9.370;2023-05-07T08:02:42;98612.50;;;26.47;44.96
78741;BME280;68062;48.726;9.370;2023-05-07T08:05:10;98598.25;;;26.50;44.34
78741;BME280;68062;48.726;9.370;2023-05-07T08:07:38;98605.41;;;25.96;45.32
78741;BME280;68062;48.726;9.370;2023-05-07T08:10:06;98602.75;;;25.70;46.80
78741;BME280;68062;48.726;9.370;2023-05-07T08:12:33;98603.09;;;24.68;49.45
78741;BME280;68062;48.726;9.370;2023-05-07T08:15:00;98606.34;;;23.85;50.43
78741;BME280;68062;48.726;9.370;2023-05-07T08:17:26;98605.69;;;23.96;49.62
78741;BME280;68062;48.726;9.370;2023-05-07T08:19:53;98611.44;;;24.46;49.49
78741;BME280;68062;48.726;9.370;2023-05-07T08:22:20;98597.94;;;24.23;49.25
78741;BME280;68062;48.726;9.370;2023-05-07T08:24:48;98604.06;;;23.93;50.58
78741;BME280;68062;48.726;9.370;2023-05-07T08:27:17;98601.03;;;24.16;50.49
78741;BME280;68062;48.726;9.370;2023-05-07T08:29:43;98600.56;;;25.36;48.43
78741;BME280;68062;48.726;9.370;2023-05-07T08:32:13;98600.34;;;25.39;48.39
78741;BME280;68062;48.726;9.370;2023-05-07T08:34:40;98603.59;;;25.70;48.75
78741;BME280;68062;48.726;9.370;2023-05-07T08:37:06;98601.91;;;25.29;47.26
78741;BME280;68062;48.726;9.370;2023-05-07T08:39:34;98601.78;;;24.76;48.89
78741;BME280;68062;48.726;9.370;2023-05-07T08:42:04;98611.44;;;25.45;47.24
78741;BME280;68062;48.726;9.370;2023-05-07T08:44:34;98606.59;;;26.05;48.47
78741;BME280;68062;48.726;9.370;2023-05-07T08:47:01;98583.22;;;27.85;43.28
78741;BME280;68062;48.726;9.370;2023-05-07T08:49:30;98597.31;;;28.54;41.18
78741;BME280;68062;48.726;9.370;2023-05-07T08:51:57;98595.28;;;28.57;41.44
78741;BME280;68062;48.726;9.370;2023-05-07T08:54:24;98590.81;;;28.81;41.28
78741;BME280;68062;48.726;9.370;2023-05-07T08:56:52;98592.59;;;28.91;40.93
78741;BME280;68062;48.726;9.370;2023-05-07T08:59:18;98601.00;;;30.26;38.76
78741;BME280;68062;48.726;9.370;2023-05-07T09:01:47;98601.81;;;27.72;43.79
78741;BME280;68062;48.726;9.370;2023-05-07T09:04:15;98597.41;;;27.95;43.41
78741;BME280;68062;48.726;9.370;2023-05-07T09:06:43;98584.13;;;27.61;43.59
78741;BME280;68062;48.726;9.370;2023-05-07T09:09:14;98590.34;;;28.18;43.23
78741;BME280;68062;48.726;9.370;2023-05-07T09:11:43;98562.06;;;27.13;43.71
78741;BME280;68062;48.726;9.370;2023-05-07T09:14:12;98582.78;;;28.59;42.11
78741;BME280;68062;48.726;9.370;2023-05-07T09:16:41;98585.25;;;28.95;41.35
78741;BME280;68062;48.726;9.370;2023-05-07T09:19:09;98588.97;;;27.43;42.80
78741;BME280;68062;48.726;9.370;2023-05-07T09:21:41;98590.69;;;28.02;42.33
78741;BME280;68062;48.726;9.370;2023-05-07T09:24:09;98593.53;;;25.90;45.46
78741;BME280;68062;48.726;9.370;2023-05-07T09:26:39;98584.56;;;27.55;44.26
78741;BME280;68062;48.726;9.370;2023-05-07T09:29:08;98576.84;;;29.76;40.57
78741;BME280;68062;48.726;9.370;2023-05-07T09:31:36;98572.34;;;29.98;38.75
78741;BME280;68062;48.726;9.370;2023-05-07T09:34:04;98567.13;;;27.99;42.28
78741;BME280;68062;48.726;9.370;2023-05-07T09:36:35;98568.94;;;28.10;40.95
78741;BME280;68062;48.726;9.370;2023-05-07T09:39:02;98561.66;;;28.14;40.84
78741;BME280;68062;48.726;9.370;2023-05-07T09:41:30;98570.81;;;27.38;42.06
78741;BME280;68062;48.726;9.370;2023-05-07T09:44:12;98578.78;;;26.77;43.34
78741;BME280;68062;48.726;9.370;2023-05-07T09:46:45;98573.53;;;27.01;43.40
78741;BME280;68062;48.726;9.370;2023-05-07T09:49:22;98568.63;;;27.32;42.59
78741;BME280;68062;48.726;9.370;2023-05-07T09:51:53;98558.03;;;28.26;41.30
78741;BME280;68062;48.726;9.370;2023-05-07T09:54:24;98562.19;;;28.63;41.43
78741;BME280;68062;48.726;9.370;2023-05-07T09:56:54;98557.31;;;28.36;41.42
78741;BME280;68062;48.726;9.370;2023-05-07T09:59:25;98556.19;;;27.93;42.12
78741;BME280;68062;48.726;9.370;2023-05-07T10:01:54;98560.00;;;27.66;43.27
78741;BME280;68062;48.726;9.370;2023-05-07T10:04:23;98561.16;;;28.31;41.98
78741;BME280;68062;48.726;9.370;2023-05-07T10:06:53;98544.31;;;28.55;41.80
78741;BME280;68062;48.726;9.370;2023-05-07T10:09:21;98560.16;;;28.67;41.85
78741;BME280;68062;48.726;9.370;2023-05-07T10:11:48;98545.91;;;29.23;42.30
78741;BME280;68062;48.726;9.370;2023-05-07T10:14:17;98550.41;;;28.67;41.12
78741;BME280;68062;48.726;9.370;2023-05-07T10:16:44;98554.47;;;26.97;44.19
78741;BME280;68062;48.726;9.370;2023-05-07T10:19:15;98550.44;;;26.17;44.84
78741;BME280;68062;48.726;9.370;2023-05-07T10:21:55;98552.13;;;25.92;45.64
78741;BME280;68062;48.726;9.370;2023-05-07T10:24:27;98554.19;;;26.00;45.66
78741;BME280;68062;48.726;9.370;2023-05-07T10:26:58;98536.53;;;26.15;46.88
78741;BME280;68062;48.726;9.370;2023-05-07T10:29:33;98539.69;;;26.20;45.61
78741;BME280;68062;48.726;9.370;2023-05-07T10:32:19;98534.22;;;27.34;43.86
78741;BME280;68062;48.726;9.370;2023-05-07T10:34:56;98535.03;;;28.61;41.29
78741;BME280;68062;48.726;9.370;2023-05-07T10:37:25;98525.44;;;28.48;39.90
78741;BME280;68062;48.726;9.370;2023-05-07T10:39:56;98503.50;;;28.69;40.08
78741;BME280;68062;48.726;9.370;2023-05-07T10:42:23;98529.06;;;29.03;39.28
78741;BME280;68062;48.726;9.370;2023-05-07T10:44:53;98526.88;;;29.29;39.44
78741;BME280;68062;48.726;9.370;2023-05-07T10:47:24;98517.84;;;28.78;39.49
78741;BME280;68062;48.726;9.370;2023-05-07T10:50:23;98517.28;;;29.49;39.52
78741;BME280;68062;48.726;9.370;2023-05-07T10:53:21;98529.13;;;30.29;36.76
78741;BME280;68062;48.726;9.370;2023-05-07T10:59:33;98520.59;;;29.09;39.32
78741;BME280;68062;48.726;9.370;2023-05-07T11:02:12;98509.81;;;30.17;37.48
78741;BME280;68062;48.726;9.370;2023-05-07T11:05:19;98510.19;;;30.53;36.14
78741;BME280;68062;48.726;9.370;2023-05-07T11:07:53;98505.50;;;30.96;35.68
78741;BME280;68062;48.726;9.370;2023-05-07T11:10:21;98496.84;;;30.84;36.23
78741;BME280;68062;48.726;9.370;2023-05-07T11:12:56;98507.19;;;29.43;37.29
78741;BME280;68062;48.726;9.370;2023-05-07T11:15:43;98508.44;;;29.06;38.69
78741;BME280;68062;48.726;9.370;2023-05-07T11:18:21;98503.41;;;29.25;37.52
78741;BME280;68062;48.726;9.370;2023-05-07T11:20:55;98506.16;;;29.56;38.60
78741;BME280;68062;48.726;9.370;2023-05-07T11:23:56;98504.66;;;29.63;35.43
78741;BME280;68062;48.726;9.370;2023-05-07T11:26:47;98493.78;;;28.70;38.02
78741;BME280;68062;48.726;9.370;2023-05-07T11:29:16;98496.63;;;28.89;37.95
78741;BME280;68062;48.726;9.370;2023-05-07T11:31:48;98498.91;;;29.15;37.92
78741;BME280;68062;48.726;9.370;2023-05-07T11:34:21;98494.69;;;29.76;36.90
78741;BME280;68062;48.726;9.370;2023-05-07T11:36:48;98494.44;;;30.10;37.04
78741;BME280;68062;48.726;9.370;2023-05-07T11:39:27;98489.25;;;30.50;34.88
78741;BME280;68062;48.726;9.370;2023-05-07T11:41:54;98480.97;;;29.92;37.21
78741;BME280;68062;48.726;9.370;2023-05-07T11:44:21;98479.06;;;28.88;37.55
78741;BME280;68062;48.726;9.370;2023-05-07T11:46:49;98473.97;;;28.53;39.73
78741;BME280;68062;48.726;9.370;2023-05-07T11:49:17;98478.69;;;29.57;38.18
78741;BME280;68062;48.726;9.370;2023-05-07T11:51:44;98476.13;;;29.45;36.75
78741;BME280;68062;48.726;9.370;2023-05-07T11:54:15;98476.22;;;28.69;37.32
78741;BME280;68062;48.726;9.370;2023-05-07T11:56:42;98462.75;;;28.16;38.19
78741;BME280;68062;48.726;9.370;2023-05-07T11:59:08;98483.16;;;28.03;39.92
78741;BME280;68062;48.726;9.370;2023-05-07T12:01:35;98483.41;;;27.66;40.49
78741;BME280;68062;48.726;9.370;2023-05-07T12:04:04;98489.91;;;27.61;39.49
78741;BME280;68062;48.726;9.370;2023-05-07T12:06:36;98503.78;;;26.43;41.70
78741;BME280;68062;48.726;9.370;2023-05-07T12:09:03;98503.94;;;26.91;40.99
78741;BME280;68062;48.726;9.370;2023-05-07T12:11:32;98493.59;;;26.63;39.95
78741;BME280;68062;48.726;9.370;2023-05-07T12:13:59;98494.91;;;26.20;41.37
78741;BME280;68062;48.726;9.370;2023-05-07T12:16:26;98497.00;;;25.89;43.42
78741;BME280;68062;48.726;9.370;2023-05-07T12:18:53;98491.59;;;26.29;41.37
78741;BME280;68062;48.726;9.370;2023-05-07T12:21:23;98470.41;;;26.31;41.44
78741;BME280;68062;48.726;9.370;2023-05-07T12:23:50;98451.16;;;25.92;41.42
78741;BME280;68062;48.726;9.370;2023-05-07T12:26:19;98500.38;;;25.91;42.20
78741;BME280;68062;48.726;9.370;2023-05-07T12:28:46;98454.53;;;25.16;42.54
78741;BME280;68062;48.726;9.370;2023-05-07T12:31:13;98497.25;;;25.07;42.87
78741;BME280;68062;48.726;9.370;2023-05-07T12:33:41;98508.44;;;24.68;43.69
78741;BME280;68062;48.726;9.370;2023-05-07T12:36:08;98516.59;;;24.36;43.91
78741;BME280;68062;48.726;9.370;2023-05-07T12:38:37;98518.16;;;23.95;45.88
78741;BME280;68062;48.726;9.370;2023-05-07T12:41:07;98535.41;;;23.26;47.41
78741;BME280;68062;48.726;9.370;2023-05-07T12:43:34;98526.25;;;22.70;49.60
78741;BME280;68062;48.726;9.370;2023-05-07T12:46:03;98505.19;;;22.40;50.02
78741;BME280;68062;48.726;9.370;2023-05-07T12:48:31;98541.69;;;22.43;51.22
78741;BME280;68062;48.726;9.370;2023-05-07T12:50:59;98550.78;;;22.19;52.36
78741;BME280;68062;48.726;9.370;2023-05-07T12:53:28;98545.53;;;22.03;50.59
78741;BME280;68062;48.726;9.370;2023-05-07T12:55:58;98549.38;;;21.96;51.13
78741;BME280;68062;48.726;9.370;2023-05-07T12:58:26;98552.25;;;21.74;52.01
78741;BME280;68062;48.726;9.370;2023-05-07T13:00:54;98557.63;;;21.53;53.00
78741;BME280;68062;48.726;9.370;2023-05-07T13:03:25;98567.91;;;21.21;55.99
78741;BME280;68062;48.726;9.370;2023-05-07T13:05:53;98572.69;;;20.75;60.02
78741;BME280;68062;48.726;9.370;2023-05-07T13:08:25;98585.47;;;19.82;70.47
78741;BME280;68062;48.726;9.370;2023-05-07T13:10:51;98588.00;;;18.97;82.80